sensor_id;sensor_type;location;lat;lon;timestamp;pressure;altitude;pressure_sealevel;temperature;humidity
75063;BME280;63981;51.052;13.754;2024-01-30T00:00:54;101945.41;;;4.26;59.09
75063;BME280;63981;51.052;13.754;2024-01-30T00:01:55;101919.41;;;4.09;59.19
75063;BME280;63981;51.052;13.754;2024-01-30T00:02:56;101940.09;;;4.28;58.66
75063;BME280;63981;51.052;13.754;2024-01-30T00:03:58;101934.88;;;4.28;58.88
75063;BME280;63981;51.052;13.754;2024-01-30T00:04:59;101923.19;;;4.19;59.37
75063;BME280;63981;51.052;13.754;2024-01-30T00:06:00;101942.63;;;4.29;59.03
75063;BME280;63981;51.052;13.754;2024-01-30T00:07:01;101948.78;;;4.28;58.91
75063;BME280;63981;51.052;13.754;2024-01-30T00:08:03;101947.00;;;4.29;58.61
75063;BME280;63981;51.052;13.754;2024-01-30T00:09:04;101942.53;;;4.31;59.19
75063;BME280;63981;51.052;13.754;2024-01-30T00:10:06;101937.94;;;4.20;60.52
75063;BME280;63981;51.052;13.754;2024-01-30T00:11:07;101945.50;;;4.25;59.41
75063;BME280;63981;51.052;13.754;2024-01-30T00:12:08;101946.06;;;4.30;58.69
75063;BME280;63981;51.052;13.754;2024-01-30T00:13:09;101926.16;;;4.13;59.53
75063;BME280;63981;51.052;13.754;2024-01-30T00:14:11;101910.50;;;4.13;58.88
75063;BME280;63981;51.052;13.754;2024-01-30T00:15:12;101921.13;;;4.10;59.62
75063;BME280;63981;51.052;13.754;2024-01-30T00:16:20;101906.38;;;4.09;59.33
75063;BME280;63981;51.052;13.754;2024-01-30T00:17:22;101886.28;;;3.95;59.24
75063;BME280;63981;51.052;13.754;2024-01-30T00:18:23;101932.09;;;4.31;59.20
75063;BME280;63981;51.052;13.754;2024-01-30T00:19:24;101935.63;;;4.30;59.15
75063;BME280;63981;51.052;13.754;2024-01-30T00:20:25;101901.91;;;4.11;59.56
75063;BME280;63981;51.052;13.754;2024-01-30T00:21:26;101940.94;;;4.28;59.16
75063;BME280;63981;51.052;13.754;2024-01-30T00:22:28;101913.28;;;4.10;59.52
75063;BME280;63981;51.052;13.754;2024-01-30T00:23:31;101941.84;;;4.27;58.57
75063;BME280;63981;51.052;13.754;2024-01-30T00:24:32;101934.88;;;4.28;59.33
75063;BME280;63981;51.052;13.754;2024-01-30T00:25:33;101932.19;;;4.29;59.51
75063;BME280;63981;51.052;13.754;2024-01-30T00:26:34;101907.91;;;4.13;58.66
75063;BME280;63981;51.052;13.754;2024-01-30T00:27:35;101911.59;;;4.09;59.21
75063;BME280;63981;51.052;13.754;2024-01-30T00:28:38;101919.84;;;4.17;58.67
75063;BME280;63981;51.052;13.754;2024-01-30T00:29:39;101928.56;;;4.32;58.59
75063;BME280;63981;51.052;13.754;2024-01-30T00:30:40;101932.09;;;4.31;58.56
75063;BME280;63981;51.052;13.754;2024-01-30T00:31:41;101928.63;;;4.30;58.64
75063;BME280;63981;51.052;13.754;2024-01-30T00:32:42;101938.22;;;4.30;58.82
75063;BME280;63981;51.052;13.754;2024-01-30T00:33:43;101933.84;;;4.30;58.93
75063;BME280;63981;51.052;13.754;2024-01-30T00:34:44;101902.00;;;4.09;58.58
75063;BME280;63981;51.052;13.754;2024-01-30T00:35:46;101931.19;;;4.32;58.80
75063;BME280;63981;51.052;13.754;2024-01-30T00:36:47;101885.94;;;4.01;58.50
75063;BME280;63981;51.052;13.754;2024-01-30T00:37:48;101908.72;;;4.13;58.97
75063;BME280;63981;51.052;13.754;2024-01-30T00:38:49;101934.81;;;4.29;58.87
75063;BME280;63981;51.052;13.754;2024-01-30T00:39:50;101934.72;;;4.31;58.92
75063;BME280;63981;51.052;13.754;2024-01-30T00:40:51;101935.56;;;4.31;59.00
75063;BME280;63981;51.052;13.754;2024-01-30T00:41:52;101933.84;;;4.30;58.72
75063;BME280;63981;51.052;13.754;2024-01-30T00:42:54;101932.00;;;4.32;58.90
75063;BME280;63981;51.052;13.754;2024-01-30T00:43:55;101904.44;;;4.12;58.64
75063;BME280;63981;51.052;13.754;2024-01-30T00:44:56;101931.25;;;4.30;58.80
75063;BME280;63981;51.052;13.754;2024-01-30T00:45:57;101913.59;;;4.19;58.61
75063;BME280;63981;51.052;13.754;2024-01-30T00:46:58;101926.97;;;4.29;58.84
75063;BME280;63981;51.052;13.754;2024-01-30T00:48:00;101896.53;;;4.14;59.01
75063;BME280;63981;51.052;13.754;2024-01-30T00:49:01;101893.53;;;4.06;58.87
75063;BME280;63981;51.052;13.754;2024-01-30T00:50:02;101912.94;;;4.16;58.60
75063;BME280;63981;51.052;13.754;2024-01-30T00:51:03;101925.28;;;4.28;58.78
75063;BME280;63981;51.052;13.754;2024-01-30T00:52:04;101928.81;;;4.27;59.19
75063;BME280;63981;51.052;13.754;2024-01-30T00:53:05;101916.22;;;4.19;58.62
75063;BME280;63981;51.052;13.754;2024-01-30T00:54:06;101932.34;;;4.26;59.56
75063;BME280;63981;51.052;13.754;2024-01-30T00:55:07;101921.44;;;4.19;58.51
75063;BME280;63981;51.052;13.754;2024-01-30T00:56:09;101930.88;;;4.22;59.06
75063;BME280;63981;51.052;13.754;2024-01-30T00:57:10;101901.50;;;4.03;58.71
75063;BME280;63981;51.052;13.754;2024-01-30T00:58:11;101905.47;;;4.10;58.76
75063;BME280;63981;51.052;13.754;2024-01-30T00:59:12;101938.59;;;4.24;59.28
75063;BME280;63981;51.052;13.754;2024-01-30T01:00:13;101936.91;;;4.22;58.89
75063;BME280;63981;51.052;13.754;2024-01-30T01:01:17;101931.78;;;4.21;59.16
75063;BME280;63981;51.052;13.754;2024-01-30T01:02:19;101937.16;;;4.18;58.80
75063;BME280;63981;51.052;13.754;2024-01-30T01:03:20;101924.31;;;4.15;58.73
75063;BME280;63981;51.052;13.754;2024-01-30T01:04:21;101929.69;;;4.12;59.00
75063;BME280;63981;51.052;13.754;2024-01-30T01:05:22;101943.38;;;4.15;58.78
75063;BME280;63981;51.052;13.754;2024-01-30T01:06:23;101914.56;;;4.03;58.83
75063;BME280;63981;51.052;13.754;2024-01-30T01:07:24;101940.22;;;4.10;59.34
75063;BME280;63981;51.052;13.754;2024-01-30T01:08:25;101933.22;;;4.11;59.32
75063;BME280;63981;51.052;13.754;2024-01-30T01:09:27;101913.97;;;3.98;59.08
75063;BME280;63981;51.052;13.754;2024-01-30T01:10:28;101902.34;;;3.88;59.51
75063;BME280;63981;51.052;13.754;2024-01-30T01:11:29;101906.91;;;3.84;60.15
75063;BME280;63981;51.052;13.754;2024-01-30T01:12:30;101934.84;;;3.98;60.74
75063;BME280;63981;51.052;13.754;2024-01-30T01:13:32;101899.94;;;3.85;59.89
75063;BME280;63981;51.052;13.754;2024-01-30T01:14:33;101918.28;;;3.99;59.83
75063;BME280;63981;51.052;13.754;2024-01-30T01:15:34;101934.31;;;4.07;59.69
75063;BME280;63981;51.052;13.754;2024-01-30T01:16:35;101852.66;;;3.60;59.50
75063;BME280;63981;51.052;13.754;2024-01-30T01:17:37;101924.31;;;3.99;59.46
75063;BME280;63981;51.052;13.754;2024-01-30T01:18:39;101940.28;;;4.09;59.51
75063;BME280;63981;51.052;13.754;2024-01-30T01:19:40;101932.88;;;4.01;60.63
75063;BME280;63981;51.052;13.754;2024-01-30T01:20:41;101905.72;;;3.90;59.81
75063;BME280;63981;51.052;13.754;2024-01-30T01:21:42;101926.53;;;3.91;60.04
75063;BME280;63981;51.052;13.754;2024-01-30T01:22:43;101929.72;;;3.96;60.13
75063;BME280;63981;51.052;13.754;2024-01-30T01:23:44;101939.16;;;3.99;59.73
75063;BME280;63981;51.052;13.754;2024-01-30T01:24:45;101926.00;;;4.00;59.55
75063;BME280;63981;51.052;13.754;2024-01-30T01:25:47;101930.47;;;3.98;59.32
75063;BME280;63981;51.052;13.754;2024-01-30T01:26:48;101909.69;;;3.81;59.96
75063;BME280;63981;51.052;13.754;2024-01-30T01:27:49;101933.25;;;3.95;59.74
75063;BME280;63981;51.052;13.754;2024-01-30T01:28:52;101922.97;;;3.92;59.70
75063;BME280;63981;51.052;13.754;2024-01-30T01:29:53;101932.06;;;3.85;61.64
75063;BME280;63981;51.052;13.754;2024-01-30T01:30:54;101929.03;;;3.93;60.03
75063;BME280;63981;51.052;13.754;2024-01-30T01:31:59;101928.03;;;3.95;59.53
75063;BME280;63981;51.052;13.754;2024-01-30T01:33:01;101942.75;;;3.96;60.02
75063;BME280;63981;51.052;13.754;2024-01-30T01:34:03;101925.66;;;3.91;60.32
75063;BME280;63981;51.052;13.754;2024-01-30T01:35:04;101925.56;;;3.92;60.10
75063;BME280;63981;51.052;13.754;2024-01-30T01:36:08;101925.84;;;3.88;60.16
75063;BME280;63981;51.052;13.754;2024-01-30T01:37:10;101901.28;;;3.76;60.45
75063;BME280;63981;51.052;13.754;2024-01-30T01:38:11;101918.84;;;3.88;60.80
75063;BME280;63981;51.052;13.754;2024-01-30T01:39:12;101931.25;;;3.85;61.01
75063;BME280;63981;51.052;13.754;2024-01-30T01:40:13;101923.97;;;3.90;60.03
75063;BME280;63981;51.052;13.754;2024-01-30T01:41:15;101916.09;;;3.91;59.88
75063;BME280;63981;51.052;13.754;2024-01-30T01:42:16;101920.47;;;3.91;59.69
75063;BME280;63981;51.052;13.754;2024-01-30T01:43:17;101929.38;;;3.87;60.40
75063;BME280;63981;51.052;13.754;2024-01-30T01:44:18;101923.06;;;3.91;60.73
75063;BME280;63981;51.052;13.754;2024-01-30T01:45:20;101920.97;;;3.82;60.70
75063;BME280;63981;51.052;13.754;2024-01-30T01:46:22;101921.47;;;3.88;60.32
75063;BME280;63981;51.052;13.754;2024-01-30T01:47:23;101933.75;;;3.86;60.51
75063;BME280;63981;51.052;13.754;2024-01-30T01:48:25;101921.22;;;3.93;59.97
75063;BME280;63981;51.052;13.754;2024-01-30T01:49:27;101927.28;;;3.93;59.91
75063;BME280;63981;51.052;13.754;2024-01-30T01:50:29;101924.16;;;3.87;60.52
75063;BME280;63981;51.052;13.754;2024-01-30T01:51:33;101920.88;;;3.83;60.23
75063;BME280;63981;51.052;13.754;2024-01-30T01:52:35;101927.19;;;3.95;60.48
75063;BME280;63981;51.052;13.754;2024-01-30T01:53:37;101931.06;;;3.88;60.59
75063;BME280;63981;51.052;13.754;2024-01-30T01:54:38;101916.66;;;3.81;60.61
75063;BME280;63981;51.052;13.754;2024-01-30T01:55:39;101904.81;;;3.75;60.72
75063;BME280;63981;51.052;13.754;2024-01-30T01:56:42;101906.31;;;3.79;60.59
75063;BME280;63981;51.052;13.754;2024-01-30T01:57:43;101924.16;;;3.87;60.45
75063;BME280;63981;51.052;13.754;2024-01-30T01:58:45;101891.19;;;3.70;60.51
75063;BME280;63981;51.052;13.754;2024-01-30T01:59:48;101935.25;;;3.90;59.75
75063;BME280;63981;51.052;13.754;2024-01-30T02:00:50;101911.63;;;3.78;60.31
75063;BME280;63981;51.052;13.754;2024-01-30T02:01:54;101919.38;;;3.79;60.11
75063;BME280;63981;51.052;13.754;2024-01-30T02:02:56;101918.84;;;3.88;60.32
75063;BME280;63981;51.052;13.754;2024-01-30T02:03:59;101865.13;;;3.55;60.30
75063;BME280;63981;51.052;13.754;2024-01-30T02:05:00;101919.88;;;3.86;60.76
75063;BME280;63981;51.052;13.754;2024-01-30T02:06:02;101926.19;;;3.82;60.95
75063;BME280;63981;51.052;13.754;2024-01-30T02:07:03;101922.81;;;3.80;61.42
75063;BME280;63981;51.052;13.754;2024-01-30T02:08:05;101907.34;;;3.77;60.21
75063;BME280;63981;51.052;13.754;2024-01-30T02:09:06;101907.50;;;3.74;60.39
75063;BME280;63981;51.052;13.754;2024-01-30T02:10:08;101917.09;;;3.89;60.15
75063;BME280;63981;51.052;13.754;2024-01-30T02:11:11;101887.91;;;3.67;61.22
75063;BME280;63981;51.052;13.754;2024-01-30T02:12:12;101914.81;;;3.83;60.69
75063;BME280;63981;51.052;13.754;2024-01-30T02:13:13;101831.91;;;3.27;61.95
75063;BME280;63981;51.052;13.754;2024-01-30T02:14:14;101889.50;;;3.69;60.64
75063;BME280;63981;51.052;13.754;2024-01-30T02:15:15;101889.44;;;3.71;60.07
75063;BME280;63981;51.052;13.754;2024-01-30T02:16:16;101887.16;;;3.65;60.21
75063;BME280;63981;51.052;13.754;2024-01-30T02:17:20;101895.91;;;3.64;61.09
75063;BME280;63981;51.052;13.754;2024-01-30T02:18:22;101919.78;;;3.72;61.52
75063;BME280;63981;51.052;13.754;2024-01-30T02:19:23;101917.75;;;3.77;60.19
75063;BME280;63981;51.052;13.754;2024-01-30T02:20:25;101876.81;;;3.47;60.58
75063;BME280;63981;51.052;13.754;2024-01-30T02:21:29;101918.78;;;3.74;60.40
75063;BME280;63981;51.052;13.754;2024-01-30T02:22:32;101915.25;;;3.75;60.11
75063;BME280;63981;51.052;13.754;2024-01-30T02:23:34;101895.16;;;3.62;60.27
75063;BME280;63981;51.052;13.754;2024-01-30T02:24:35;101906.69;;;3.73;60.84
75063;BME280;63981;51.052;13.754;2024-01-30T02:25:39;101896.97;;;3.60;60.33
75063;BME280;63981;51.052;13.754;2024-01-30T02:26:47;101918.78;;;3.74;60.11
75063;BME280;63981;51.052;13.754;2024-01-30T02:27:48;101910.44;;;3.68;61.15
75063;BME280;63981;51.052;13.754;2024-01-30T02:28:49;101911.56;;;3.64;61.67
75063;BME280;63981;51.052;13.754;2024-01-30T02:29:50;101908.84;;;3.65;60.46
75063;BME280;63981;51.052;13.754;2024-01-30T02:30:51;101907.94;;;3.66;61.19
75063;BME280;63981;51.052;13.754;2024-01-30T02:31:52;101910.56;;;3.66;61.35
75063;BME280;63981;51.052;13.754;2024-01-30T02:32:53;101910.81;;;3.62;62.22
75063;BME280;63981;51.052;13.754;2024-01-30T02:33:56;101882.03;;;3.47;61.63
75063;BME280;63981;51.052;13.754;2024-01-30T02:35:01;101918.44;;;3.65;60.81
75063;BME280;63981;51.052;13.754;2024-01-30T02:36:02;101879.50;;;3.46;60.94
75063;BME280;63981;51.052;13.754;2024-01-30T02:37:04;101870.16;;;3.42;60.91
75063;BME280;63981;51.052;13.754;2024-01-30T02:38:05;101901.19;;;3.62;60.80
75063;BME280;63981;51.052;13.754;2024-01-30T02:39:06;101912.06;;;3.70;60.43
75063;BME280;63981;51.052;13.754;2024-01-30T02:40:07;101906.75;;;3.72;60.64
75063;BME280;63981;51.052;13.754;2024-01-30T02:41:08;101881.78;;;3.52;60.81
75063;BME280;63981;51.052;13.754;2024-01-30T02:42:09;101905.91;;;3.71;60.23
75063;BME280;63981;51.052;13.754;2024-01-30T02:43:10;101902.38;;;3.72;60.44
75063;BME280;63981;51.052;13.754;2024-01-30T02:44:11;101908.50;;;3.71;60.52
75063;BME280;63981;51.052;13.754;2024-01-30T02:45:12;101909.44;;;3.70;60.82
75063;BME280;63981;51.052;13.754;2024-01-30T02:46:14;101871.41;;;3.50;60.56
75063;BME280;63981;51.052;13.754;2024-01-30T02:47:15;101858.91;;;3.41;60.45
75063;BME280;63981;51.052;13.754;2024-01-30T02:48:16;101870.66;;;3.48;61.04
75063;BME280;63981;51.052;13.754;2024-01-30T02:49:17;101881.69;;;3.54;60.93
75063;BME280;63981;51.052;13.754;2024-01-30T02:50:18;101899.44;;;3.63;60.58
75063;BME280;63981;51.052;13.754;2024-01-30T02:51:20;101900.13;;;3.66;60.90
75063;BME280;63981;51.052;13.754;2024-01-30T02:52:21;101862.25;;;3.43;60.57
75063;BME280;63981;51.052;13.754;2024-01-30T02:53:22;101883.69;;;3.48;62.04
75063;BME280;63981;51.052;13.754;2024-01-30T02:54:23;101894.31;;;3.61;61.21
75063;BME280;63981;51.052;13.754;2024-01-30T02:55:25;101896.97;;;3.60;61.27
75063;BME280;63981;51.052;13.754;2024-01-30T02:56:26;101889.50;;;3.54;61.53
75063;BME280;63981;51.052;13.754;2024-01-30T02:57:27;101901.28;;;3.61;61.60
75063;BME280;63981;51.052;13.754;2024-01-30T02:58:28;101871.16;;;3.39;61.54
75063;BME280;63981;51.052;13.754;2024-01-30T02:59:29;101903.78;;;3.62;61.22
75063;BME280;63981;51.052;13.754;2024-01-30T03:00:30;101880.09;;;3.51;61.01
75063;BME280;63981;51.052;13.754;2024-01-30T03:01:31;101909.19;;;3.59;61.51
75063;BME280;63981;51.052;13.754;2024-01-30T03:02:33;101916.34;;;3.56;61.49
75063;BME280;63981;51.052;13.754;2024-01-30T03:03:34;101898.78;;;3.59;60.73
75063;BME280;63981;51.052;13.754;2024-01-30T03:04:40;101896.22;;;3.58;61.07
75063;BME280;63981;51.052;13.754;2024-01-30T03:05:44;101897.34;;;3.54;60.93
75063;BME280;63981;51.052;13.754;2024-01-30T03:06:45;101858.50;;;3.33;60.85
75063;BME280;63981;51.052;13.754;2024-01-30T03:07:47;101894.88;;;3.50;61.94
75063;BME280;63981;51.052;13.754;2024-01-30T03:08:49;101832.59;;;3.15;61.25
75063;BME280;63981;51.052;13.754;2024-01-30T03:09:50;101875.47;;;3.40;61.31
75063;BME280;63981;51.052;13.754;2024-01-30T03:10:51;101907.00;;;3.52;61.46
75063;BME280;63981;51.052;13.754;2024-01-30T03:11:52;101894.63;;;3.55;60.94
75063;BME280;63981;51.052;13.754;2024-01-30T03:12:53;101899.69;;;3.58;60.64
75063;BME280;63981;51.052;13.754;2024-01-30T03:13:54;101899.03;;;3.55;61.35
75063;BME280;63981;51.052;13.754;2024-01-30T03:14:55;101870.41;;;3.37;60.70
75063;BME280;63981;51.052;13.754;2024-01-30T03:15:56;101896.47;;;3.53;60.74
75063;BME280;63981;51.052;13.754;2024-01-30T03:16:58;101899.69;;;3.58;61.02
75063;BME280;63981;51.052;13.754;2024-01-30T03:17:59;101887.66;;;3.56;60.40
75063;BME280;63981;51.052;13.754;2024-01-30T03:19:00;101888.91;;;3.48;61.62
75063;BME280;63981;51.052;13.754;2024-01-30T03:20:04;101895.81;;;3.49;61.19
75063;BME280;63981;51.052;13.754;2024-01-30T03:21:05;101854.69;;;3.23;61.18
75063;BME280;63981;51.052;13.754;2024-01-30T03:22:06;101859.50;;;3.31;60.68
75063;BME280;63981;51.052;13.754;2024-01-30T03:23:07;101873.78;;;3.39;61.01
75063;BME280;63981;51.052;13.754;2024-01-30T03:24:08;101892.47;;;3.47;60.76
75063;BME280;63981;51.052;13.754;2024-01-30T03:25:10;101890.50;;;3.51;60.87
75063;BME280;63981;51.052;13.754;2024-01-30T03:26:11;101881.44;;;3.42;60.86
75063;BME280;63981;51.052;13.754;2024-01-30T03:27:13;101893.28;;;3.48;61.27
75063;BME280;63981;51.052;13.754;2024-01-30T03:28:14;101896.66;;;3.50;60.71
75063;BME280;63981;51.052;13.754;2024-01-30T03:29:15;101888.25;;;3.45;61.32
75063;BME280;63981;51.052;13.754;2024-01-30T03:30:16;101885.47;;;3.48;61.44
75063;BME280;63981;51.052;13.754;2024-01-30T03:31:18;101887.41;;;3.44;61.26
75063;BME280;63981;51.052;13.754;2024-01-30T03:32:19;101888.16;;;3.46;60.98
75063;BME280;63981;51.052;13.754;2024-01-30T03:33:20;101899.94;;;3.38;62.95
75063;BME280;63981;51.052;13.754;2024-01-30T03:34:21;101883.94;;;3.28;62.61
75063;BME280;63981;51.052;13.754;2024-01-30T03:35:22;101891.00;;;3.42;61.35
75063;BME280;63981;51.052;13.754;2024-01-30T03:36:23;101896.38;;;3.39;61.68
75063;BME280;63981;51.052;13.754;2024-01-30T03:37:24;101872.31;;;3.18;62.17
75063;BME280;63981;51.052;13.754;2024-01-30T03:38:25;101887.66;;;3.40;61.67
75063;BME280;63981;51.052;13.754;2024-01-30T03:39:26;101896.31;;;3.40;61.67
75063;BME280;63981;51.052;13.754;2024-01-30T03:40:27;101888.81;;;3.34;61.69
75063;BME280;63981;51.052;13.754;2024-01-30T03:41:28;101893.72;;;3.40;62.00
75063;BME280;63981;51.052;13.754;2024-01-30T03:42:29;101852.94;;;3.24;61.22
75063;BME280;63981;51.052;13.754;2024-01-30T03:43:30;101889.25;;;3.42;62.04
75063;BME280;63981;51.052;13.754;2024-01-30T03:44:31;101885.22;;;3.37;61.59
75063;BME280;63981;51.052;13.754;2024-01-30T03:45:32;101887.66;;;3.40;61.77
75063;BME280;63981;51.052;13.754;2024-01-30T03:46:33;101895.22;;;3.44;61.42
75063;BME280;63981;51.052;13.754;2024-01-30T03:47:34;101891.25;;;3.37;62.59
75063;BME280;63981;51.052;13.754;2024-01-30T03:48:35;101842.22;;;3.13;61.60
75063;BME280;63981;51.052;13.754;2024-01-30T03:49:36;101890.31;;;3.38;61.93
75063;BME280;63981;51.052;13.754;2024-01-30T03:50:37;101889.50;;;3.38;62.13
75063;BME280;63981;51.052;13.754;2024-01-30T03:51:38;101889.16;;;3.44;61.78
75063;BME280;63981;51.052;13.754;2024-01-30T03:52:40;101897.06;;;3.42;61.86
75063;BME280;63981;51.052;13.754;2024-01-30T03:53:44;101890.84;;;3.45;61.28
75063;BME280;63981;51.052;13.754;2024-01-30T03:54:47;101879.00;;;3.39;61.53
75063;BME280;63981;51.052;13.754;2024-01-30T03:55:48;101873.34;;;3.31;61.58
75063;BME280;63981;51.052;13.754;2024-01-30T03:56:49;101889.66;;;3.50;61.00
75063;BME280;63981;51.052;13.754;2024-01-30T03:57:50;101891.53;;;3.48;61.52
75063;BME280;63981;51.052;13.754;2024-01-30T03:58:51;101894.22;;;3.47;61.54
75063;BME280;63981;51.052;13.754;2024-01-30T03:59:52;101888.50;;;3.40;61.49
75063;BME280;63981;51.052;13.754;2024-01-30T04:00:54;101884.97;;;3.41;61.79
75063;BME280;63981;51.052;13.754;2024-01-30T04:01:55;101900.69;;;3.40;62.38
75063;BME280;63981;51.052;13.754;2024-01-30T04:02:56;101865.19;;;3.22;62.09
75063;BME280;63981;51.052;13.754;2024-01-30T04:03:57;101897.31;;;3.38;62.82
75063;BME280;63981;51.052;13.754;2024-01-30T04:04:58;101899.69;;;3.42;61.67
75063;BME280;63981;51.052;13.754;2024-01-30T04:05:59;101890.09;;;3.43;61.46
75063;BME280;63981;51.052;13.754;2024-01-30T04:07:00;101900.44;;;3.44;61.82
75063;BME280;63981;51.052;13.754;2024-01-30T04:08:01;101885.56;;;3.46;61.11
75063;BME280;63981;51.052;13.754;2024-01-30T04:09:03;101888.25;;;3.45;62.31
75063;BME280;63981;51.052;13.754;2024-01-30T04:10:05;101880.75;;;3.39;61.27
75063;BME280;63981;51.052;13.754;2024-01-30T04:11:09;101861.16;;;3.32;61.52
75063;BME280;63981;51.052;13.754;2024-01-30T04:12:10;101854.19;;;3.32;61.09
75063;BME280;63981;51.052;13.754;2024-01-30T04:13:11;101887.16;;;3.49;61.59
75063;BME280;63981;51.052;13.754;2024-01-30T04:14:12;101883.63;;;3.50;61.24
75063;BME280;63981;51.052;13.754;2024-01-30T04:15:13;101879.25;;;3.50;61.62
75063;BME280;63981;51.052;13.754;2024-01-30T04:16:21;101885.41;;;3.49;62.02
75063;BME280;63981;51.052;13.754;2024-01-30T04:17:23;101892.97;;;3.54;61.88
75063;BME280;63981;51.052;13.754;2024-01-30T04:18:24;101876.28;;;3.41;61.56
75063;BME280;63981;51.052;13.754;2024-01-30T04:19:25;101884.66;;;3.47;61.72
75063;BME280;63981;51.052;13.754;2024-01-30T04:20:26;101860.91;;;3.36;61.52
75063;BME280;63981;51.052;13.754;2024-01-30T04:21:26;101887.00;;;3.52;61.73
75063;BME280;63981;51.052;13.754;2024-01-30T04:22:27;101865.81;;;3.42;61.83
75063;BME280;63981;51.052;13.754;2024-01-30T04:23:29;101861.84;;;3.35;61.56
75063;BME280;63981;51.052;13.754;2024-01-30T04:24:30;101855.03;;;3.33;61.57
75063;BME280;63981;51.052;13.754;2024-01-30T04:25:31;101886.31;;;3.48;61.61
75063;BME280;63981;51.052;13.754;2024-01-30T04:26:32;101860.16;;;3.34;62.14
75063;BME280;63981;51.052;13.754;2024-01-30T04:27:33;101871.06;;;3.41;61.04
75063;BME280;63981;51.052;13.754;2024-01-30T04:28:35;101880.09;;;3.51;61.62
75063;BME280;63981;51.052;13.754;2024-01-30T04:29:36;101883.09;;;3.43;62.71
75063;BME280;63981;51.052;13.754;2024-01-30T04:30:37;101883.28;;;3.40;62.88
75063;BME280;63981;51.052;13.754;2024-01-30T04:31:38;101871.16;;;3.39;61.88
75063;BME280;63981;51.052;13.754;2024-01-30T04:32:39;101886.56;;;3.44;62.61
75063;BME280;63981;51.052;13.754;2024-01-30T04:33:40;101880.44;;;3.45;61.59
75063;BME280;63981;51.052;13.754;2024-01-30T04:34:41;101890.16;;;3.41;62.60
75063;BME280;63981;51.052;13.754;2024-01-30T04:35:42;101872.09;;;3.38;62.44
75063;BME280;63981;51.052;13.754;2024-01-30T04:36:44;101878.38;;;3.34;63.21
75063;BME280;63981;51.052;13.754;2024-01-30T04:37:46;101879.09;;;3.38;62.16
75063;BME280;63981;51.052;13.754;2024-01-30T04:38:47;101880.41;;;3.29;63.92
75063;BME280;63981;51.052;13.754;2024-01-30T04:39:48;101890.56;;;3.34;63.22
75063;BME280;63981;51.052;13.754;2024-01-30T04:40:49;101877.53;;;3.34;62.66
75063;BME280;63981;51.052;13.754;2024-01-30T04:41:50;101885.59;;;3.29;63.29
75063;BME280;63981;51.052;13.754;2024-01-30T04:42:51;101854.78;;;3.22;62.02
75063;BME280;63981;51.052;13.754;2024-01-30T04:43:52;101876.63;;;3.35;62.49
75063;BME280;63981;51.052;13.754;2024-01-30T04:44:53;101877.03;;;3.27;64.27
75063;BME280;63981;51.052;13.754;2024-01-30T04:45:54;101856.28;;;3.26;62.36
75063;BME280;63981;51.052;13.754;2024-01-30T04:46:55;101876.63;;;3.35;62.08
75063;BME280;63981;51.052;13.754;2024-01-30T04:47:59;101882.00;;;3.32;62.74
75063;BME280;63981;51.052;13.754;2024-01-30T04:49:01;101874.19;;;3.32;62.96
75063;BME280;63981;51.052;13.754;2024-01-30T04:50:01;101880.41;;;3.29;63.45
75063;BME280;63981;51.052;13.754;2024-01-30T04:51:05;101874.94;;;3.34;62.13
75063;BME280;63981;51.052;13.754;2024-01-30T04:52:06;101881.94;;;3.33;62.50
75063;BME280;63981;51.052;13.754;2024-01-30T04:53:07;101876.72;;;3.33;62.85
75063;BME280;63981;51.052;13.754;2024-01-30T04:54:08;101850.81;;;3.15;62.58
75063;BME280;63981;51.052;13.754;2024-01-30T04:55:09;101876.97;;;3.29;63.29
75063;BME280;63981;51.052;13.754;2024-01-30T04:56:10;101871.69;;;3.30;62.59
75063;BME280;63981;51.052;13.754;2024-01-30T04:57:11;101879.75;;;3.26;63.43
75063;BME280;63981;51.052;13.754;2024-01-30T04:58:13;101838.19;;;3.07;62.24
75063;BME280;63981;51.052;13.754;2024-01-30T04:59:14;101885.31;;;3.35;61.92
75063;BME280;63981;51.052;13.754;2024-01-30T05:00:15;101869.16;;;3.29;62.81
75063;BME280;63981;51.052;13.754;2024-01-30T05:01:16;101850.28;;;3.08;62.83
75063;BME280;63981;51.052;13.754;2024-01-30T05:02:18;101877.97;;;3.26;62.95
75063;BME280;63981;51.052;13.754;2024-01-30T05:03:20;101874.44;;;3.27;62.92
75063;BME280;63981;51.052;13.754;2024-01-30T05:04:23;101875.94;;;3.31;62.33
75063;BME280;63981;51.052;13.754;2024-01-30T05:05:24;101878.53;;;3.31;62.02
75063;BME280;63981;51.052;13.754;2024-01-30T05:06:26;101879.41;;;3.32;62.18
75063;BME280;63981;51.052;13.754;2024-01-30T05:07:27;101880.25;;;3.32;61.78
75063;BME280;63981;51.052;13.754;2024-01-30T05:08:29;101844.16;;;3.09;62.24
75063;BME280;63981;51.052;13.754;2024-01-30T05:09:30;101879.25;;;3.35;62.18
75063;BME280;63981;51.052;13.754;2024-01-30T05:10:31;101867.31;;;3.31;62.48
75063;BME280;63981;51.052;13.754;2024-01-30T05:11:39;101802.97;;;2.85;63.52
75063;BME280;63981;51.052;13.754;2024-01-30T05:12:41;101882.44;;;3.24;63.80
75063;BME280;63981;51.052;13.754;2024-01-30T05:13:42;101872.78;;;3.26;62.80
75063;BME280;63981;51.052;13.754;2024-01-30T05:14:43;101869.41;;;3.24;62.01
75063;BME280;63981;51.052;13.754;2024-01-30T05:15:44;101878.38;;;3.34;62.30
75063;BME280;63981;51.052;13.754;2024-01-30T05:16:45;101821.88;;;3.04;62.03
75063;BME280;63981;51.052;13.754;2024-01-30T05:17:47;101872.28;;;3.35;61.94
75063;BME280;63981;51.052;13.754;2024-01-30T05:18:49;101796.97;;;2.83;62.22
75063;BME280;63981;51.052;13.754;2024-01-30T05:19:50;101874.19;;;3.32;62.53
75063;BME280;63981;51.052;13.754;2024-01-30T05:20:51;101869.97;;;3.29;62.20
75063;BME280;63981;51.052;13.754;2024-01-30T05:21:52;101876.72;;;3.33;62.47